Time;durP1;ratioP1;P1;durP2;ratioP2;P2;SDS_P1;SDS_P2;PMS_P1;PMS_P2;Temp;Humidity;BMP_temperature;BMP_pressure;BME280_temperature;BME280_humidity;BME280_pressure;Samples;Min_cycle;Max_cycle;Signal;HPM_P1;HPM_P2
2021/08/09 00:00:46;;;;;;;4.75;2.83;;;;;;;26.36;53.51;101559.30;1677319;85;21039;-50
2021/08/09 00:03:13;;;;;;;3.80;2.98;;;;;;;26.36;53.29;101557.97;1677058;84;21566;-50
2021/08/09 00:05:41;;;;;;;3.25;2.80;;;;;;;26.35;53.18;101553.61;1677187;85;21027;-50
2021/08/09 00:08:09;;;;;;;11.60;3.87;;;;;;;26.36;53.35;101559.30;1677044;85;21011;-50
2021/08/09 00:10:38;;;;;;;3.85;3.33;;;;;;;26.36;53.70;101567.31;1677258;85;21078;-50
2021/08/09 00:13:06;;;;;;;3.67;3.05;;;;;;;26.36;54.00;101563.30;1673365;85;21012;-50
2021/08/09 00:15:34;;;;;;;5.45;3.33;;;;;;;26.36;54.20;101560.64;1676804;85;21043;-50
2021/08/09 00:18:03;;;;;;;4.67;3.50;;;;;;;26.33;54.28;101560.41;1676973;84;21091;-49
2021/08/09 00:20:30;;;;;;;4.15;3.75;;;;;;;26.33;54.43;101553.73;1676338;85;21035;-49
2021/08/09 00:22:58;;;;;;;5.37;3.72;;;;;;;26.35;54.60;101553.61;1676949;85;21106;-50
2021/08/09 00:25:27;;;;;;;5.70;3.75;;;;;;;26.35;54.88;101545.61;1677074;85;21043;-50
2021/08/09 00:27:55;;;;;;;4.50;4.00;;;;;;;26.36;55.27;101552.63;1677004;85;21062;-50
2021/08/09 00:30:22;;;;;;;4.78;3.65;;;;;;;26.36;55.27;101552.63;1677218;85;21011;-49
2021/08/09 00:32:50;;;;;;;4.37;3.92;;;;;;;26.37;55.44;101551.69;1675968;85;21114;-50
2021/08/09 00:35:18;;;;;;;4.47;3.90;;;;;;;26.35;55.58;101553.61;1677069;84;20999;-50
2021/08/09 00:37:47;;;;;;;4.33;3.70;;;;;;;26.35;55.81;101552.28;1677020;85;21042;-49
2021/08/09 00:40:13;;;;;;;4.15;3.72;;;;;;;26.35;55.65;101554.47;1677610;84;21023;-50
2021/08/09 00:42:42;;;;;;;4.58;3.83;;;;;;;26.36;55.63;101557.97;1678558;85;21070;-50
2021/08/09 00:45:10;;;;;;;4.15;3.65;;;;;;;26.35;55.67;101549.61;1677200;85;21018;-50
2021/08/09 00:47:37;;;;;;;5.65;4.17;;;;;;;26.33;55.76;101552.41;1677230;85;21090;-49
2021/08/09 00:50:06;;;;;;;5.08;4.03;;;;;;;26.33;55.95;101552.88;1677248;85;21106;-50
2021/08/09 00:52:33;;;;;;;4.05;3.65;;;;;;;26.33;55.85;101559.55;1677450;85;21019;-50
2021/08/09 00:55:03;;;;;;;4.15;3.40;;;;;;;26.35;55.89;101564.29;1677337;85;21027;-50
2021/08/09 00:57:31;;;;;;;5.08;3.58;;;;;;;26.34;55.58;101556.76;1645518;86;21565;-49
2021/08/09 00:59:58;;;;;;;4.72;3.20;;;;;;;26.34;55.20;101563.91;1676574;85;21042;-50
2021/08/09 01:02:25;;;;;;;4.22;3.50;;;;;;;26.34;55.20;101563.91;1661065;84;21011;-49
2021/08/09 01:04:52;;;;;;;5.45;4.17;;;;;;;26.35;55.17;101561.63;1677611;85;21034;-49
2021/08/09 01:07:21;;;;;;;8.35;5.00;;;;;;;26.36;55.13;101557.97;1677360;85;21046;-51
2021/08/09 01:09:52;;;;;;;11.90;7.67;;;;;;;26.36;55.12;101551.30;1677409;85;21022;-50
2021/08/09 01:12:44;;;;;;;6.85;4.92;;;;;;;26.36;55.15;101557.97;1611394;87;21117;-50
2021/08/09 01:15:19;;;;;;;5.95;3.58;;;;;;;26.30;55.36;101550.42;1610143;87;21078;-52
2021/08/09 01:17:47;;;;;;;6.45;4.25;;;;;;;26.31;55.35;101545.00;1652328;84;21099;-50
2021/08/09 01:20:32;;;;;;;4.45;4.05;;;;;;;26.31;55.54;101538.80;1654510;85;21619;-50
2021/08/09 01:23:41;;;;;;;8.35;4.00;;;;;;;26.29;55.67;101540.26;1634554;84;21024;-55
2021/08/09 01:26:27;;;;;;;5.12;3.67;;;;;;;26.28;55.92;101539.02;1633379;86;21572;-50
2021/08/09 01:28:56;;;;;;;4.37;3.98;;;;;;;26.25;56.16;101536.59;1626451;86;21054;-50
2021/08/09 01:31:24;;;;;;;7.35;3.98;;;;;;;26.21;56.25;101540.45;1651031;85;21560;-52
2021/08/09 01:33:51;;;;;;;5.22;3.98;;;;;;;26.18;56.28;101538.86;1632841;86;21555;-49
2021/08/09 01:36:18;;;;;;;4.40;3.98;;;;;;;26.17;56.26;101537.66;1658132;85;21068;-51
2021/08/09 01:38:46;;;;;;;6.58;4.03;;;;;;;26.15;56.34;101536.41;1660052;86;21065;-50
2021/08/09 01:41:13;;;;;;;5.60;3.87;;;;;;;26.14;56.20;101536.53;1660131;85;21153;-49
2021/08/09 01:43:40;;;;;;;8.20;4.15;;;;;;;26.12;56.22;101537.98;1635759;86;21057;-49
2021/08/09 01:46:08;;;;;;;5.37;4.53;;;;;;;26.09;56.21;101537.38;1595194;88;21046;-49
2021/08/09 01:48:34;;;;;;;4.33;3.92;;;;;;;26.06;56.25;101530.88;1602480;88;21537;-48
2021/08/09 01:51:01;;;;;;;5.15;4.30;;;;;;;26.05;56.22;101537.20;1656844;85;21114;-48
2021/08/09 01:53:30;;;;;;;4.20;3.80;;;;;;;26.01;56.14;101533.05;1635639;87;21093;-48
2021/08/09 01:55:57;;;;;;;4.92;3.85;;;;;;;25.98;56.14;101535.93;1599717;89;21145;-48
2021/08/09 01:58:26;;;;;;;6.58;4.25;;;;;;;25.97;56.11;101538.21;1660549;85;21048;-48
2021/08/09 02:00:54;;;;;;;4.30;3.87;;;;;;;25.91;56.19;101532.86;1659220;85;21046;-49
2021/08/09 02:03:21;;;;;;;4.20;3.77;;;;;;;25.91;56.04;101530.66;1662121;85;21146;-49
2021/08/09 02:05:47;;;;;;;4.95;4.28;;;;;;;25.91;56.04;101530.66;1632823;87;21011;-49
2021/08/09 02:08:14;;;;;;;5.95;4.25;;;;;;;25.89;56.15;101523.27;1654034;84;21117;-49
2021/08/09 02:10:40;;;;;;;5.00;3.98;;;;;;;25.89;56.24;101523.27;1673783;84;20986;-49
2021/08/09 02:13:15;;;;;;;4.60;3.70;;;;;;;25.89;55.93;101522.78;1691733;83;21082;-49
2021/08/09 02:16:02;;;;;;;4.25;3.85;;;;;;;25.86;55.74;101521.70;1653913;85;21049;-49
2021/08/09 02:18:54;;;;;;;4.65;4.20;;;;;;;25.83;55.82;101524.57;1606325;88;21083;-49
2021/08/09 02:21:28;;;;;;;5.37;4.15;;;;;;;25.82;55.95;101529.55;1611905;86;21090;-49
2021/08/09 02:24:31;;;;;;;4.55;3.95;;;;;;;25.79;56.02;101534.62;1535648;92;21178;-49
2021/08/09 02:27:04;;;;;;;4.37;3.95;;;;;;;25.76;56.22;101538.83;1430838;99;21187;-49
2021/08/09 02:29:33;;;;;;;6.05;4.30;;;;;;;25.74;56.55;101535.42;1429392;99;21149;-49
2021/08/09 02:32:02;;;;;;;4.20;3.80;;;;;;;25.74;56.53;101534.09;1425941;99;21062;-49
2021/08/09 02:34:32;;;;;;;7.28;4.53;;;;;;;25.75;56.39;101537.14;1438350;99;21606;-49
2021/08/09 02:37:02;;;;;;;6.12;4.08;;;;;;;25.73;56.38;101535.54;1423834;99;21129;-49
2021/08/09 02:39:32;;;;;;;4.97;4.47;;;;;;;25.72;56.45;101536.02;1431774;99;21622;-50
2021/08/09 02:42:00;;;;;;;9.13;4.70;;;;;;;25.72;56.32;101538.67;1440682;99;21094;-49
2021/08/09 02:44:27;;;;;;;4.72;4.20;;;;;;;25.73;56.35;101538.20;1472106;96;21644;-48
2021/08/09 02:46:54;;;;;;;5.72;4.42;;;;;;;25.72;56.41;101544.02;1455198;97;21171;-49
2021/08/09 02:49:21;;;;;;;5.20;4.17;;;;;;;25.70;56.45;101539.27;1471084;95;21180;-50
2021/08/09 02:51:48;;;;;;;6.62;4.12;;;;;;;25.70;56.57;101542.41;1454568;96;21053;-48
2021/08/09 02:54:16;;;;;;;8.55;4.20;;;;;;;25.69;56.61;101538.05;1441893;96;21137;-49
2021/08/09 02:56:44;;;;;;;4.25;3.85;;;;;;;25.67;56.59;101538.17;1461196;97;21607;-49
2021/08/09 02:59:13;;;;;;;4.85;4.22;;;;;;;25.65;56.62;101535.24;1438657;98;21168;-47
2021/08/09 03:01:40;;;;;;;4.55;4.12;;;;;;;25.64;56.56;101541.05;1471824;97;21155;-49
2021/08/09 03:04:14;;;;;;;7.95;4.05;;;;;;;25.62;56.61;101538.12;1512869;92;21892;-49
2021/08/09 03:06:41;;;;;;;8.70;4.65;;;;;;;25.62;56.48;101542.97;1507607;92;21074;-48
2021/08/09 03:09:08;;;;;;;8.38;4.15;;;;;;;25.61;56.26;101537.29;1522998;93;21079;-48
2021/08/09 03:11:35;;;;;;;13.20;4.95;;;;;;;25.60;56.13;101548.03;1521093;93;21602;-48
2021/08/09 03:14:03;;;;;;;5.90;5.00;;;;;;;25.57;56.09;101547.80;1541326;92;21597;-48
2021/08/09 03:16:31;;;;;;;7.17;4.30;;;;;;;25.57;55.95;101545.13;1541296;92;21548;-48
2021/08/09 03:18:59;;;;;;;6.55;4.37;;;;;;;25.56;55.79;101549.22;1533408;92;21139;-49
2021/08/09 03:21:26;;;;;;;5.78;4.53;;;;;;;25.53;55.49;101549.45;1615038;86;21058;-49
2021/08/09 03:23:52;;;;;;;7.50;4.85;;;;;;;25.50;55.36;101550.98;1641125;86;21093;-50
2021/08/09 03:26:19;;;;;;;6.53;4.20;;;;;;;25.48;55.19;101548.45;1671701;85;21065;-50
2021/08/09 03:28:46;;;;;;;4.53;4.12;;;;;;;25.48;54.91;101551.11;1633634;86;21058;-50
2021/08/09 03:31:13;;;;;;;5.37;4.60;;;;;;;25.45;54.76;101551.31;1634453;86;21644;-50
2021/08/09 03:33:40;;;;;;;6.85;4.53;;;;;;;25.44;54.71;101553.62;1631530;86;21191;-51
2021/08/09 03:36:07;;;;;;;5.47;4.58;;;;;;;25.44;54.58;101552.28;1630121;86;21041;-49
2021/08/09 03:38:35;;;;;;;4.97;4.47;;;;;;;25.46;54.58;101555.70;1707350;82;21085;-49
2021/08/09 03:41:04;;;;;;;5.55;4.15;;;;;;;25.53;54.51;101562.27;1730574;82;21031;-50
2021/08/09 03:43:31;;;;;;;5.00;4.40;;;;;;;25.66;54.43;101553.78;1730045;82;21049;-49
2021/08/09 03:45:57;;;;;;;7.58;4.72;;;;;;;25.85;54.50;101557.30;1728181;82;21010;-50
2021/08/09 03:48:25;;;;;;;7.08;4.40;;;;;;;26.09;54.01;101562.71;1731304;82;21019;-50
2021/08/09 03:50:51;;;;;;;8.55;4.45;;;;;;;26.34;53.43;101558.56;1730036;82;21506;-49
2021/08/09 03:53:18;;;;;;;6.42;4.83;;;;;;;26.53;52.95;101566.91;1734763;82;21014;-49
2021/08/09 03:55:45;;;;;;;5.53;4.42;;;;;;;26.63;52.67;101569.24;1729862;82;21207;-49
2021/08/09 03:58:12;;;;;;;9.15;5.40;;;;;;;26.66;52.83;101571.70;1729220;81;21016;-49
2021/08/09 04:00:38;;;;;;;6.37;5.10;;;;;;;26.67;53.15;101566.70;1713561;82;21495;-48
2021/08/09 04:03:05;;;;;;;18.60;6.80;;;;;;;26.66;53.20;101570.36;1695209;83;21054;-48
2021/08/09 04:05:34;;;;;;;6.03;5.42;;;;;;;26.63;53.38;101563.91;1687767;83;21132;-49
2021/08/09 04:08:00;;;;;;;7.58;5.33;;;;;;;26.61;53.48;101576.52;1690951;83;21104;-49
2021/08/09 04:10:27;;;;;;;6.25;5.30;;;;;;;26.51;53.96;101579.52;1690890;83;21057;-48
2021/08/09 04:12:54;;;;;;;15.48;5.87;;;;;;;26.51;53.96;101579.52;1695414;83;21038;-49
2021/08/09 04:15:23;;;;;;;13.40;6.30;;;;;;;26.49;54.03;101586.78;1694195;84;21554;-48
2021/08/09 04:17:49;;;;;;;6.90;5.50;;;;;;;26.46;54.20;101583.03;1692801;83;21009;-48
2021/08/09 04:20:16;;;;;;;10.72;5.33;;;;;;;26.42;54.26;101582.89;1690856;83;21133;-48
2021/08/09 04:22:43;;;;;;;8.10;5.22;;;;;;;26.43;54.49;101591.25;1728633;82;21073;-49
2021/08/09 04:25:10;;;;;;;9.18;5.35;;;;;;;26.40;54.62;101594.13;1722226;82;21026;-48
2021/08/09 04:27:38;;;;;;;10.95;5.33;;;;;;;26.40;54.38;101598.14;1728306;82;21080;-48
2021/08/09 04:30:05;;;;;;;10.23;4.80;;;;;;;26.37;54.27;101600.58;1729647;81;21063;-49
2021/08/09 04:32:42;;;;;;;10.35;5.20;;;;;;;26.36;54.12;101607.34;1693921;83;21559;-49
2021/08/09 04:35:11;;;;;;;6.55;4.60;;;;;;;26.34;53.99;101611.94;1692711;83;21065;-49
2021/08/09 04:37:39;;;;;;;7.58;5.00;;;;;;;26.30;54.05;101613.13;1658673;85;21023;-49
2021/08/09 04:40:08;;;;;;;9.75;5.03;;;;;;;26.29;53.91;101619.45;1686608;83;21023;-50
2021/08/09 04:42:37;;;;;;;6.08;4.75;;;;;;;26.29;53.94;101624.78;1692097;83;21034;-49
2021/08/09 04:45:06;;;;;;;5.40;4.65;;;;;;;26.24;53.79;101614.44;1640238;85;21094;-49
2021/08/09 04:47:34;;;;;;;5.30;4.45;;;;;;;26.24;53.79;101614.44;1727832;81;21018;-49
2021/08/09 04:50:01;;;;;;;8.55;5.00;;;;;;;26.23;53.62;101614.09;1693893;83;21058;-49
2021/08/09 04:52:30;;;;;;;9.55;4.83;;;;;;;26.21;53.65;101615.16;1694379;83;21035;-49
2021/08/09 04:54:56;;;;;;;6.10;4.83;;;;;;;26.18;53.90;101622.03;1727175;82;21037;-49
2021/08/09 04:57:24;;;;;;;5.60;5.08;;;;;;;26.15;53.86;101617.77;1728385;82;21010;-49
2021/08/09 04:59:50;;;;;;;8.63;5.03;;;;;;;26.14;54.11;101615.22;1732650;82;21018;-50
2021/08/09 05:02:17;;;;;;;7.53;5.22;;;;;;;26.14;54.34;101619.22;1733012;82;21039;-49
2021/08/09 05:04:43;;;;;;;7.50;4.70;;;;;;;26.13;54.00;101614.87;1689849;84;21053;-49
2021/08/09 05:07:10;;;;;;;7.37;5.50;;;;;;;26.14;54.16;101621.89;1692274;84;21117;-49
2021/08/09 05:09:38;;;;;;;13.13;5.20;;;;;;;26.14;54.31;101611.22;1727560;82;21089;-49
2021/08/09 05:12:06;;;;;;;5.03;4.53;;;;;;;26.13;54.31;101615.70;1689290;84;21087;-50
2021/08/09 05:14:34;;;;;;;6.70;4.33;;;;;;;26.15;54.07;101615.61;1699812;83;21566;-50
2021/08/09 05:17:03;;;;;;;7.17;4.87;;;;;;;26.14;53.70;101620.09;1691084;83;21525;-49
2021/08/09 05:19:31;;;;;;;5.78;4.47;;;;;;;26.16;53.70;101614.62;1688887;84;21374;-49
2021/08/09 05:21:59;;;;;;;6.22;4.20;;;;;;;26.17;53.74;101613.68;1688222;83;21018;-49
2021/08/09 05:24:25;;;;;;;5.28;3.98;;;;;;;26.20;53.07;101614.77;1692396;83;20990;-49
2021/08/09 05:26:55;;;;;;;5.20;4.22;;;;;;;26.20;53.05;101616.97;1688896;84;21055;-49
2021/08/09 05:29:21;;;;;;;7.75;4.30;;;;;;;26.22;53.21;101615.51;1693198;83;21015;-49
2021/08/09 05:31:48;;;;;;;8.35;4.37;;;;;;;26.24;53.09;101617.11;1691941;83;21062;-48
2021/08/09 05:34:15;;;;;;;11.38;4.62;;;;;;;26.26;52.69;101616.52;1691697;83;21568;-49
2021/08/09 05:36:43;;;;;;;8.28;3.80;;;;;;;26.30;52.28;101614.46;1701371;83;21030;-49
2021/08/09 05:39:10;;;;;;;8.88;4.58;;;;;;;26.34;52.35;101611.94;1667041;83;21154;-49
2021/08/09 05:41:37;;;;;;;9.13;4.90;;;;;;;26.42;52.00;101611.74;1697937;83;21034;-49
2021/08/09 05:44:05;;;;;;;5.78;3.95;;;;;;;26.52;52.02;101613.27;1689009;84;21514;-49
2021/08/09 05:46:34;;;;;;;5.03;4.15;;;;;;;26.59;51.67;101603.34;1655562;86;21624;-50
2021/08/09 05:49:01;;;;;;;6.83;4.67;;;;;;;26.66;51.34;101609.07;1654462;84;21160;-50
2021/08/09 05:51:28;;;;;;;4.30;3.70;;;;;;;26.69;51.34;101607.48;1671922;85;21509;-49
2021/08/09 05:53:56;;;;;;;6.03;4.08;;;;;;;26.72;51.38;101593.95;1675113;85;21511;-48
2021/08/09 05:56:23;;;;;;;6.65;4.50;;;;;;;26.78;51.42;101598.83;1688596;84;21027;-49
2021/08/09 05:58:52;;;;;;;10.75;4.58;;;;;;;26.64;51.20;101603.00;1686885;84;21041;-48
2021/08/09 06:01:19;;;;;;;6.60;3.95;;;;;;;26.67;51.82;101597.41;1662027;85;21567;-49
2021/08/09 06:03:46;;;;;;;6.25;4.33;;;;;;;26.67;51.82;101597.41;1719535;82;21038;-48
2021/08/09 06:06:18;;;;;;;5.22;4.10;;;;;;;26.73;51.97;101594.30;1729647;82;21580;-48
2021/08/09 06:08:46;;;;;;;6.28;3.83;;;;;;;26.82;51.72;101596.29;1726552;82;21062;-48
2021/08/09 06:11:14;;;;;;;4.55;3.90;;;;;;;26.93;51.60;101596.81;1737471;82;21062;-48
2021/08/09 06:13:41;;;;;;;7.30;4.47;;;;;;;27.02;50.94;101586.26;1731489;82;21014;-49
2021/08/09 06:16:10;;;;;;;9.93;4.65;;;;;;;27.10;50.71;101579.83;1732613;82;21074;-48
2021/08/09 06:18:38;;;;;;;6.60;5.33;;;;;;;27.16;50.95;101590.05;1734522;82;21510;-48
2021/08/09 06:21:06;;;;;;;5.87;5.05;;;;;;;27.29;50.02;101590.80;1730146;82;21022;-48
2021/08/09 06:23:33;;;;;;;5.42;4.90;;;;;;;27.47;49.75;101595.71;1689276;83;21090;-48
2021/08/09 06:26:00;;;;;;;6.35;4.55;;;;;;;27.56;49.78;101600.31;1687392;83;21543;-48
2021/08/09 06:28:28;;;;;;;6.10;4.15;;;;;;;27.60;49.32;101591.93;1727369;82;21101;-48
2021/08/09 06:30:56;;;;;;;5.92;4.28;;;;;;;27.62;49.00;101589.13;1731653;80;20990;-48
2021/08/09 06:33:23;;;;;;;7.92;4.40;;;;;;;27.64;49.28;101588.04;1739667;80;21628;-48
2021/08/09 06:35:50;;;;;;;5.72;4.25;;;;;;;27.67;49.34;101585.61;1730997;82;21011;-48
2021/08/09 06:38:18;;;;;;;9.70;4.37;;;;;;;27.70;49.71;101584.88;1728196;82;21034;-49
2021/08/09 06:40:45;;;;;;;5.90;4.28;;;;;;;27.72;49.72;101589.61;1734765;81;21037;-51
2021/08/09 06:43:12;;;;;;;9.25;5.50;;;;;;;27.76;49.45;101599.59;1716123;82;21072;-50
2021/08/09 06:45:43;;;;;;;10.82;4.80;;;;;;;27.79;49.78;101598.00;1729866;82;21090;-48
2021/08/09 06:48:12;;;;;;;6.67;4.25;;;;;;;27.83;49.96;101590.95;1729096;82;21586;-50
2021/08/09 06:50:40;;;;;;;6.83;4.55;;;;;;;27.88;49.90;101593.25;1729851;82;21018;-50
2021/08/09 06:53:08;;;;;;;5.50;4.50;;;;;;;27.94;49.48;101596.29;1731685;82;21001;-49
2021/08/09 06:55:36;;;;;;;8.43;4.37;;;;;;;27.97;49.76;101596.53;1728306;82;21146;-49
2021/08/09 06:58:03;;;;;;;4.97;4.35;;;;;;;28.00;49.81;101597.64;1698708;83;21064;-49
2021/08/09 07:00:29;;;;;;;16.10;5.65;;;;;;;28.00;49.48;101598.50;1733246;82;21554;-48
2021/08/09 07:02:57;;;;;;;4.92;4.47;;;;;;;28.00;49.57;101594.97;1730416;82;21065;-49
2021/08/09 07:05:24;;;;;;;4.85;4.45;;;;;;;27.93;49.84;101595.05;1731023;82;21522;-49
2021/08/09 07:07:51;;;;;;;5.10;4.62;;;;;;;28.03;49.18;101589.34;1729831;82;21080;-50
2021/08/09 07:10:20;;;;;;;5.78;4.40;;;;;;;28.06;48.92;101594.47;1700229;83;21061;-49
2021/08/09 07:12:49;;;;;;;10.35;5.08;;;;;;;28.09;48.67;101591.52;1736159;82;21015;-49
2021/08/09 07:15:16;;;;;;;6.75;4.45;;;;;;;28.12;49.03;101588.61;1686886;84;21505;-50
2021/08/09 07:17:43;;;;;;;6.47;4.35;;;;;;;28.17;48.40;101592.59;1676824;84;21089;-49
2021/08/09 07:20:14;;;;;;;15.70;5.62;;;;;;;28.24;48.21;101591.61;1688061;84;21046;-49
2021/08/09 07:22:43;;;;;;;11.00;5.12;;;;;;;28.32;48.32;101593.17;1693251;83;20990;-49
2021/08/09 07:25:12;;;;;;;6.33;4.58;;;;;;;28.40;48.39;101587.20;1649584;86;21269;-48
2021/08/09 07:27:38;;;;;;;11.08;4.53;;;;;;;28.48;48.23;101584.73;1619643;87;21077;-50
2021/08/09 07:30:08;;;;;;;5.45;4.53;;;;;;;28.55;47.98;101595.27;1671336;85;21608;-48
2021/08/09 07:32:35;;;;;;;6.65;4.37;;;;;;;28.57;47.59;101583.49;1666204;85;21482;-48
2021/08/09 07:35:04;;;;;;;5.92;4.37;;;;;;;28.59;48.00;101582.02;1670225;85;21571;-48
2021/08/09 07:37:31;;;;;;;6.87;4.25;;;;;;;28.60;48.02;101587.27;1668191;85;21570;-48
2021/08/09 07:40:00;;;;;;;20.30;5.30;;;;;;;28.59;48.16;101589.56;1638456;86;21577;-48
2021/08/09 07:42:27;;;;;;;8.20;4.53;;;;;;;28.60;48.10;101595.30;1669093;85;21639;-48
2021/08/09 07:44:56;;;;;;;4.83;3.67;;;;;;;28.61;48.26;101588.95;1669106;84;20995;-48
2021/08/09 07:47:24;;;;;;;9.43;4.47;;;;;;;28.63;48.20;101586.98;1626993;87;21075;-49
2021/08/09 07:49:51;;;;;;;5.42;4.40;;;;;;;28.64;48.13;101588.70;1633919;87;21074;-48
2021/08/09 07:52:18;;;;;;;6.67;3.95;;;;;;;28.66;48.25;101588.57;1633674;87;21054;-49
2021/08/09 07:54:45;;;;;;;6.67;4.25;;;;;;;28.69;48.07;101590.48;1626581;88;21094;-49
2021/08/09 07:57:14;;;;;;;5.15;3.72;;;;;;;28.73;47.79;101590.59;1637513;87;21624;-48
2021/08/09 07:59:41;;;;;;;11.88;4.70;;;;;;;28.77;47.80;101589.34;1604905;88;21559;-48
2021/08/09 08:02:08;;;;;;;10.03;3.98;;;;;;;28.80;47.62;101588.25;1619563;87;21109;-49
2021/08/09 08:04:35;;;;;;;7.87;4.30;;;;;;;28.83;47.73;101590.17;1638732;87;21065;-50
2021/08/09 08:07:03;;;;;;;8.75;4.70;;;;;;;28.87;47.71;101592.95;1638747;87;21083;-48
2021/08/09 08:09:31;;;;;;;4.28;3.92;;;;;;;28.91;47.47;101594.38;1619134;86;21078;-49
2021/08/09 08:11:59;;;;;;;5.80;3.52;;;;;;;28.95;47.36;101590.45;1643436;86;21570;-49
2021/08/09 08:14:26;;;;;;;7.28;4.00;;;;;;;29.01;46.93;101585.56;1644087;86;21571;-48
2021/08/09 08:16:55;;;;;;;4.67;4.20;;;;;;;29.02;46.96;101575.23;1671645;85;21106;-49
2021/08/09 08:19:24;;;;;;;11.15;4.00;;;;;;;29.06;47.23;101571.30;1675572;85;21002;-48
2021/08/09 08:21:51;;;;;;;7.20;5.08;;;;;;;29.09;46.96;101572.36;1705446;82;21021;-48
2021/08/09 08:24:18;;;;;;;7.35;4.28;;;;;;;29.12;47.08;101569.42;1731620;81;21466;-48
2021/08/09 08:26:47;;;;;;;7.10;4.00;;;;;;;29.13;47.14;101571.11;1734029;82;21053;-48
2021/08/09 08:29:14;;;;;;;7.08;3.75;;;;;;;29.17;47.28;101571.23;1681119;84;21055;-48
2021/08/09 08:31:42;;;;;;;5.60;3.67;;;;;;;29.20;47.53;101571.84;1690801;84;21042;-49
2021/08/09 08:34:09;;;;;;;7.55;3.77;;;;;;;29.24;47.32;101571.08;1689494;83;20983;-49
2021/08/09 08:36:37;;;;;;;7.00;3.47;;;;;;;29.29;47.16;101571.50;1692732;83;21074;-49
2021/08/09 08:39:06;;;;;;;9.40;3.70;;;;;;;29.34;46.60;101571.48;1687712;84;21591;-49
2021/08/09 08:41:34;;;;;;;5.35;4.33;;;;;;;29.39;46.62;101563.01;1658475;85;21518;-49
2021/08/09 08:44:01;;;;;;;5.67;4.12;;;;;;;29.45;46.26;101569.20;1673043;83;21010;-49
2021/08/09 08:46:28;;;;;;;3.62;3.33;;;;;;;29.52;45.97;101570.34;1690501;84;21518;-49
2021/08/09 08:48:58;;;;;;;7.42;3.12;;;;;;;29.56;45.86;101571.77;1670570;84;21073;-49
2021/08/09 08:51:25;;;;;;;4.85;3.27;;;;;;;29.61;45.79;101572.23;1686057;84;21021;-48
2021/08/09 08:53:55;;;;;;;5.33;3.30;;;;;;;29.65;45.88;101570.97;1678906;84;21026;-48
2021/08/09 08:56:22;;;;;;;6.17;3.27;;;;;;;29.70;46.07;101568.70;1720295;82;21062;-48
2021/08/09 08:58:49;;;;;;;6.20;3.62;;;;;;;29.72;45.76;101566.73;1712496;82;22152;-49
2021/08/09 09:01:38;;;;;;;6.05;4.50;;;;;;;29.74;45.61;101558.09;1718311;83;21065;-49
2021/08/09 09:04:32;;;;;;;3.90;3.60;;;;;;;29.80;45.99;101561.56;1730372;82;21046;-49
2021/08/09 09:07:02;;;;;;;5.15;3.60;;;;;;;29.87;46.09;101556.50;1722394;82;21140;-49
2021/08/09 09:09:32;;;;;;;4.53;2.95;;;;;;;29.89;45.73;101564.78;1734213;82;21541;-49
2021/08/09 09:12:00;;;;;;;4.42;3.08;;;;;;;29.93;45.70;101563.52;1730500;82;21041;-48
2021/08/09 09:14:32;;;;;;;3.50;3.05;;;;;;;29.96;45.67;101564.59;1736115;82;21085;-49
2021/08/09 09:16:59;;;;;;;3.30;3.00;;;;;;;30.00;45.66;101555.77;1673522;85;21521;-49
2021/08/09 09:19:47;;;;;;;5.20;2.60;;;;;;;30.05;45.43;101562.40;1659408;84;21081;-48
2021/08/09 09:22:24;;;;;;;3.10;2.80;;;;;;;30.08;44.96;101562.14;1663601;85;21085;-49
2021/08/09 09:24:55;;;;;;;3.60;2.47;;;;;;;30.13;44.17;101566.58;1665641;85;21052;-49
2021/08/09 09:27:33;;;;;;;5.47;2.98;;;;;;;30.16;44.20;101560.94;1676582;85;21071;-49
2021/08/09 09:30:02;;;;;;;6.33;3.10;;;;;;;30.21;44.17;101566.72;1672255;84;21049;-49
2021/08/09 09:32:30;;;;;;;5.10;2.58;;;;;;;30.23;43.92;101562.06;1664850;85;21059;-49
2021/08/09 09:34:57;;;;;;;5.12;3.27;;;;;;;30.27;43.92;101554.11;1668014;85;21116;-49
2021/08/09 09:37:37;;;;;;;7.78;2.52;;;;;;;30.31;44.01;101552.88;1661001;85;21006;-49
2021/08/09 09:40:16;;;;;;;6.42;3.12;;;;;;;30.35;43.64;101552.94;1672465;85;21628;-49
2021/08/09 09:42:41;;;;;;;4.03;3.12;;;;;;;30.38;42.92;101558.02;1614699;87;21097;-49
2021/08/09 09:45:28;;;;;;;4.97;2.60;;;;;;;30.42;43.26;101555.39;1615795;88;21543;-49
2021/08/09 09:48:08;;;;;;;4.55;3.27;;;;;;;30.46;43.85;101555.47;1620260;87;21613;-50
2021/08/09 09:50:38;;;;;;;4.08;2.62;;;;;;;30.51;44.11;101551.87;1615057;88;21065;-50
2021/08/09 09:53:22;;;;;;;3.05;2.62;;;;;;;30.54;42.58;101552.91;1576472;89;21252;-50
2021/08/09 09:58:20;;;;;;;3.27;2.00;;;;;;;30.59;42.26;101560.55;1508309;94;21097;-49
2021/08/09 10:00:48;;;;;;;5.75;2.58;;;;;;;30.60;42.75;101553.34;1488811;94;21048;-50
2021/08/09 10:03:16;;;;;;;2.58;2.37;;;;;;;30.62;42.77;101556.25;1521011;94;21607;-50
2021/08/09 10:05:43;;;;;;;3.72;2.37;;;;;;;30.67;42.66;101562.52;1513115;94;21589;-49
2021/08/09 10:08:15;;;;;;;8.03;2.45;;;;;;;30.71;42.76;101565.30;1510956;93;21109;-49
2021/08/09 10:10:49;;;;;;;2.72;2.15;;;;;;;30.74;42.08;101569.02;1521130;93;21061;-49
2021/08/09 10:13:20;;;;;;;2.67;2.00;;;;;;;30.78;41.58;101565.05;1497269;94;21192;-50
2021/08/09 10:15:52;;;;;;;3.20;2.40;;;;;;;30.81;41.20;101566.13;1538033;91;21161;-49
2021/08/09 10:18:26;;;;;;;3.45;2.58;;;;;;;30.86;41.31;101565.22;1541538;92;21107;-49
2021/08/09 10:20:55;;;;;;;2.60;2.15;;;;;;;30.88;41.14;101568.12;1535727;92;21102;-50
2021/08/09 10:23:36;;;;;;;5.85;2.33;;;;;;;30.91;40.12;101571.02;1538459;92;21146;-49
2021/08/09 10:26:06;;;;;;;2.95;1.70;;;;;;;30.93;39.56;101569.89;1489197;94;21100;-49
2021/08/09 10:28:55;;;;;;;5.35;2.42;;;;;;;30.98;39.83;101572.97;1479765;96;21134;-50
2021/08/09 10:31:33;;;;;;;2.92;2.22;;;;;;;31.02;39.63;101574.86;1466522;96;21093;-49
2021/08/09 10:34:00;;;;;;;5.70;2.30;;;;;;;31.07;39.44;101569.42;1434591;98;21169;-49
2021/08/09 10:36:26;;;;;;;9.33;2.37;;;;;;;31.11;38.68;101574.86;1434151;99;21115;-49
2021/08/09 10:38:59;;;;;;;5.00;1.98;;;;;;;31.15;38.85;101584.81;1451662;97;21643;-49
2021/08/09 10:41:35;;;;;;;4.50;1.72;;;;;;;31.16;38.57;101594.59;1446363;98;21096;-49
2021/08/09 10:44:14;;;;;;;11.18;2.42;;;;;;;31.18;38.69;101588.05;1442129;98;21597;-50
2021/08/09 10:46:44;;;;;;;4.37;2.20;;;;;;;31.19;38.71;101586.22;1437265;98;21179;-49
2021/08/09 10:49:47;;;;;;;4.62;2.12;;;;;;;31.20;38.22;101581.20;1442421;96;21151;-48
2021/08/09 10:52:20;;;;;;;6.53;2.30;;;;;;;31.21;38.21;101576.16;1473428;96;21130;-48
2021/08/09 10:54:47;;;;;;;4.67;2.30;;;;;;;31.24;38.73;101575.89;1491009;95;21147;-48
2021/08/09 10:57:13;;;;;;;3.50;2.45;;;;;;;31.25;38.04;101582.95;1468801;96;21099;-48
2021/08/09 10:59:49;;;;;;;3.35;1.92;;;;;;;31.25;38.12;101581.11;1469617;96;21254;-48
2021/08/09 11:02:20;;;;;;;3.15;2.08;;;;;;;31.26;37.57;101574.72;1466468;92;21159;-48
2021/08/09 11:05:19;;;;;;;6.70;2.00;;;;;;;31.29;37.16;101573.59;1547790;90;21137;-49
2021/08/09 11:07:46;;;;;;;3.42;1.98;;;;;;;31.30;36.50;101573.95;1568542;91;21087;-48
2021/08/09 11:10:15;;;;;;;4.28;1.92;;;;;;;31.33;36.98;101569.61;1567016;91;21163;-48
2021/08/09 11:12:59;;;;;;;5.42;2.25;;;;;;;31.37;37.14;101573.70;1535384;91;21568;-49
2021/08/09 11:15:28;;;;;;;4.65;1.90;;;;;;;31.41;36.64;101568.41;1478705;95;21072;-48
2021/08/09 11:17:58;;;;;;;5.60;2.40;;;;;;;31.45;37.04;101567.63;1480808;95;21137;-49
2021/08/09 11:20:34;;;;;;;3.67;2.20;;;;;;;31.48;37.90;101560.11;1461716;98;21127;-48
2021/08/09 11:23:11;;;;;;;3.83;2.05;;;;;;;31.50;38.04;101560.80;1464787;96;21190;-48
2021/08/09 11:25:45;;;;;;;4.35;2.08;;;;;;;31.53;37.20;101556.45;1484106;96;21064;-48
2021/08/09 11:28:26;;;;;;;7.25;2.12;;;;;;;31.55;36.70;101555.80;1466133;96;21146;-48
2021/08/09 11:31:03;;;;;;;6.00;2.30;;;;;;;31.59;36.02;101551.00;1470149;95;21072;-48
2021/08/09 11:33:37;;;;;;;3.87;2.58;;;;;;;31.59;36.32;101543.78;1531613;92;21088;-48
2021/08/09 11:36:14;;;;;;;6.55;2.40;;;;;;;31.61;36.40;101541.78;1505430;93;21162;-48
2021/08/09 11:38:52;;;;;;;3.83;2.00;;;;;;;31.63;36.30;101538.45;1505247;93;21671;-48